Flight Track Log - Related Links

Times and Time Zones

All times are in EDT time to prevent confusion due to time zone crossing. See the DAL6246 flight status page for this flight to view local times or setup timezone preferences in your user account.

Time Position Orientation Groundspeed Altitude Reporting Facility
EDT Latitude Longitude Course Direction KTS MPH feet Rate Location/Type
Mon 06:12:31 AM 34.3367 -77.9411 12° North 257 296 4,500  Level Washington Center
Mon 06:13:33 AM 34.4203 -77.9333 North 316 364 7,000 2,650 Climbing Washington Center
Mon 06:14:31 AM 34.5081 -77.9208 North 322 371 9,800 2,118 Climbing Washington Center
Mon 06:15:32 AM 34.6042 -77.9058 North 331 381 11,200 1,736 Climbing Washington Center
Mon 06:16:32 AM 34.7111 -77.8911 North 363 418 13,300 1,884 Climbing Washington Center
Mon 06:17:00 AM 34.9463 -77.8009 12° North  Level FlightAware Approximate
Mon 06:17:33 AM 34.7989 -77.8811 North 382 440 15,000  Level Washington Center
Mon 06:18:33 AM 34.9225 -77.8567 North 399 459 16,500 1,487 Climbing Washington Center
Mon 06:19:30 AM 35.0436 -77.8397 North 419 482 17,900 1,424 Climbing Washington Center
Mon 06:20:31 AM 35.1672 -77.8228 North 432 497 19,300 1,388 Climbing Washington Center
Mon 06:21:31 AM 35.2928 -77.8033 North 447 514 20,700 1,400 Climbing Washington Center
Mon 06:22:31 AM 35.4203 -77.7839 North 447 514 22,100 1,400 Climbing Washington Center
Mon 06:23:31 AM 35.5500 -77.7644 North 453 521 23,500 1,328 Climbing Washington Center
Mon 06:24:33 AM 35.6756 -77.7475 North 453 521 24,800 1,150 Climbing Washington Center
Mon 06:25:31 AM 35.8053 -77.7306 North 458 527 25,800 1,109 Climbing Washington Center
Mon 06:26:32 AM 35.9517 -77.7064 North 477 549 27,000 1,140 Climbing Washington Center
Mon 06:27:32 AM 36.0819 -77.6583 17° North 477 549 28,100 992 Climbing Washington Center
Mon 06:28:33 AM 36.2158 -77.6386 North 482 555 29,000 4,413 Climbing Washington Center
Mon 06:29:33 AM 36.3517 -77.6217 North 482 555 37,000 1,000 Climbing Washington Center
Mon 06:30:33 AM 36.4856 -77.6069 North 482 555 31,000 -2,500 Descending Washington Center
Mon 06:31:33 AM 36.6233 -77.5897 North 482 555 32,000 1,017 Climbing Washington Center
Mon 06:32:31 AM 36.7500 -77.5128 26° Northeast 482 555 33,000 1,008 Climbing Washington Center
Mon 06:33:32 AM 36.8681 -77.4247 31° Northeast 482 555 34,000 984 Climbing Washington Center
Mon 06:34:33 AM 36.9903 -77.3444 28° Northeast 492 566 35,000 992 Climbing Washington Center
Mon 06:35:33 AM 37.1019 -77.2689 28° Northeast 497 572 36,000 1,017 Climbing Washington Center
Mon 06:36:31 AM 37.2197 -77.1933 27° Northeast 489 563 37,000 504 Climbing Washington Center
Mon 06:37:32 AM 37.3442 -77.1044 30° Northeast 494 568 37,000  Level Washington Center
Mon 06:38:33 AM 37.4767 -77.0022 31° Northeast 504 580 37,000  Level Washington Center
Mon 06:39:31 AM 37.6047 -76.9261 25° Northeast 509 586 37,000  Level Washington Center
Mon 06:40:32 AM 37.7347 -76.8628 21° North 496 571 37,000  Level Washington Center
Mon 06:41:33 AM 37.8647 -76.7992 21° North 496 571 37,000  Level Washington Center
Mon 06:42:33 AM 37.9967 -76.7406 19° North 496 571 37,000  Level Washington Center
Mon 06:43:31 AM 38.1267 -76.6819 20° North 496 571 37,000  Level Washington Center
Mon 06:44:32 AM 38.2583 -76.6203 20° North 496 571 37,000  Level Washington Center
Mon 06:45:33 AM 38.3633 -76.5344 33° Northeast 493 567 37,000 -102 Level Washington Center
Mon 06:46:30 AM 38.4622 -76.4083 45° Northeast 488 562 36,800 -1,169 Descending Washington Center
Mon 06:47:31 AM 38.5633 -76.2794 45° Northeast 500 575 34,700 -2,231 Descending Washington Center
Mon 06:48:31 AM 38.6681 -76.1447 45° Northeast 514 592 32,300 -2,281 Descending Washington Center
Mon 06:49:32 AM 38.7708 -76.0122 45° Northeast 514 592 30,100 -2,164 Descending Washington Center
Mon 06:50:33 AM 38.8714 -75.8822 45° Northeast 514 592 27,900 -1,613 Descending Washington Center
Mon 06:51:31 AM 38.9717 -75.7678 42° Northeast 504 580 26,900 -508 Descending Washington Center
Mon 06:52:31 AM 39.0781 -75.6639 37° Northeast 484 557 26,900 -496 Level Washington Center
Mon 06:53:32 AM 39.1842 -75.5647 36° Northeast 474 545 25,900 -1,008 Descending Washington Center
Mon 06:54:30 AM 39.2883 -75.4683 36° Northeast 468 539 24,900 -1,059 Descending Washington Center
Mon 06:55:31 AM 39.3903 -75.3767 35° Northeast 456 525 23,800 -1,339 Descending Washington Center
Mon 06:56:31 AM 39.4964 -75.2822 34° Northeast 451 519 22,200 -1,736 Descending Washington Center
Mon 06:57:32 AM 39.5961 -75.1903 35° Northeast 444 511 20,300 -1,916 Descending Washington Center
Mon 06:58:30 AM 39.6958 -75.1008 35° Northeast 444 511 18,400 -1,966 Descending Washington Center
Mon 06:59:31 AM 39.8017 -75.0081 34° Northeast 433 498 16,400 -1,770 Descending Washington Center
Mon 07:00:32 AM 39.8867 -74.9317 35° Northeast 414 476 14,800 -1,771 Descending Washington Center
Mon 07:01:16 AM 39.9667 -74.8500 38° Northeast 401 461 13,300 -1,846 Descending New York TRACON
Mon 07:02:16 AM 40.0333 -74.7333 53° Northeast 393 452 11,600 -1,650 Descending New York TRACON
Mon 07:03:16 AM 40.1000 -74.6333 49° Northeast 379 436 10,000 -800 Descending New York TRACON
Mon 07:04:16 AM 40.1667 -74.5333 49° Northeast 375 432 10,000  Level New York TRACON
Mon 07:05:10 AM 40.2333 -74.4500 44° Northeast 378 435 10,000  Level New York TRACON
Mon 07:06:10 AM 40.3167 -74.3500 42° Northeast 377 434 10,000 -53 Level New York TRACON
Mon 07:07:04 AM 40.3833 -74.2667 44° Northeast 345 397 9,900 -842 Descending New York TRACON
Mon 07:08:04 AM 40.4500 -74.1833 44° Northeast 309 356 8,400 -1,474 Descending New York TRACON
Mon 07:08:58 AM 40.5000 -74.1167 45° Northeast 305 351 7,100 -1,474 Descending New York TRACON
Mon 07:09:58 AM 40.5667 -74.0500 37° Northeast 307 353 5,600 -1,513 Descending New York TRACON
Mon 07:10:53 AM 40.6333 -74.0333 11° North 297 342 4,200 -835 Descending New York TRACON
Mon 07:11:53 AM 40.7167 -74.0167 North 287 330 4,000 -100 Descending New York TRACON
Mon 07:12:53 AM 40.7833 -73.9833 21° North 288 331 4,000 -252 Level New York TRACON
Mon 07:13:52 AM 40.8500 -73.9333 30° Northeast 281 323 3,500 -1,008 Descending New York TRACON
Mon 07:14:52 AM 40.9333 -73.8833 24° Northeast 281 323 2,000 -783 Descending New York TRACON
Mon 07:15:47 AM 40.9167 -73.8167 108° East 218 251 2,000  Level New York TRACON
Mon 07:16:47 AM 40.8833 -73.7833 143° Southeast 186 214 2,000 -300 Level New York TRACON
Mon 07:17:47 AM 40.8500 -73.8167 217° Southwest 139 160 1,400 -632 Descending New York TRACON
Mon 07:18:41 AM 40.8167 -73.8500 217° Southwest 128 147 800 -667 Descending New York TRACON

Login

Don't have an account? Register now (free) for customized features, flight alerts, and more!